createdAt,value
2022-11-06T00:03:48.543Z,5.96
2022-11-06T00:08:51.852Z,5.91
2022-11-06T00:13:55.266Z,5.84
2022-11-06T00:19:02.586Z,5.78
2022-11-06T00:24:07.717Z,5.73
2022-11-06T00:29:14.975Z,5.69
2022-11-06T00:34:18.243Z,5.65
2022-11-06T00:39:21.651Z,5.59
2022-11-06T00:44:24.961Z,5.54
2022-11-06T00:49:28.782Z,5.51
2022-11-06T00:54:32.098Z,5.47
2022-11-06T00:59:35.507Z,5.43
2022-11-06T01:04:38.920Z,5.39
2022-11-06T01:09:42.350Z,5.35
2022-11-06T01:14:45.752Z,5.30
2022-11-06T01:19:49.057Z,5.25
2022-11-06T01:24:52.443Z,5.21
2022-11-06T01:29:57.118Z,5.15
2022-11-06T01:35:00.219Z,5.10
2022-11-06T01:40:05.167Z,5.04
2022-11-06T01:45:24.462Z,5.02
2022-11-06T01:50:27.969Z,5.00
2022-11-06T01:55:38.344Z,5.00
2022-11-06T02:00:42.485Z,4.99
2022-11-06T02:05:46.399Z,4.96
2022-11-06T02:10:50.874Z,4.88
2022-11-06T02:16:02.851Z,4.81
2022-11-06T02:21:20.702Z,4.75
2022-11-06T02:26:45.416Z,4.72
2022-11-06T02:31:52.413Z,4.72
2022-11-06T02:37:04.938Z,4.69
2022-11-06T02:42:12.446Z,4.68
2022-11-06T02:47:19.343Z,4.65
2022-11-06T02:52:29.536Z,4.61
2022-11-06T02:57:38.251Z,4.56
2022-11-06T03:02:59.609Z,4.53
2022-11-06T03:08:12.358Z,4.51
2022-11-06T03:13:24.641Z,4.49
2022-11-06T03:18:40.954Z,4.46
2022-11-06T03:23:56.246Z,4.43
2022-11-06T03:29:40.008Z,4.36
2022-11-06T03:34:51.917Z,4.36
2022-11-06T03:40:00.968Z,4.36
2022-11-06T03:45:10.902Z,4.36
2022-11-06T03:50:26.530Z,4.35
2022-11-06T03:55:36.193Z,4.30
2022-11-06T04:00:42.132Z,4.20
2022-11-06T04:05:52.435Z,4.16
2022-11-06T04:11:18.993Z,4.13
2022-11-06T04:16:23.831Z,4.14
2022-11-06T04:21:30.021Z,4.16
2022-11-06T04:26:40.700Z,4.19
2022-11-06T04:31:46.780Z,4.24
2022-11-06T04:37:01.455Z,4.26
2022-11-06T04:42:24.935Z,4.26
2022-11-06T04:47:29.380Z,4.27
2022-11-06T04:52:34.017Z,4.27
2022-11-06T04:57:37.327Z,4.23
2022-11-06T05:02:41.150Z,4.17
2022-11-06T05:07:44.462Z,4.13
2022-11-06T05:12:48.303Z,4.12
2022-11-06T05:17:51.700Z,4.11
2022-11-06T05:23:01.210Z,4.09
2022-11-06T05:28:09.508Z,4.05
2022-11-06T05:33:12.790Z,3.95
2022-11-06T05:38:16.305Z,3.91
2022-11-06T05:43:19.924Z,3.92
2022-11-06T05:48:23.339Z,3.98
2022-11-06T05:53:26.751Z,4.10
2022-11-06T05:58:30.269Z,4.20
2022-11-06T06:03:33.577Z,4.27
2022-11-06T06:08:37.195Z,4.36
2022-11-06T06:13:40.508Z,4.48
2022-11-06T06:18:44.021Z,4.61
2022-11-06T06:23:47.536Z,4.65
2022-11-06T06:28:50.847Z,4.69
2022-11-06T06:33:54.263Z,4.73
2022-11-06T06:38:57.572Z,4.83
2022-11-06T06:44:00.981Z,4.96
2022-11-06T06:49:05.107Z,5.06
2022-11-06T06:54:08.835Z,5.12
2022-11-06T06:59:12.157Z,5.25
2022-11-06T07:04:15.456Z,5.36
2022-11-06T07:09:19.283Z,5.39
2022-11-06T07:14:22.691Z,5.46
2022-11-06T07:19:26.009Z,5.50
2022-11-06T07:24:29.517Z,5.50
2022-11-06T07:29:32.932Z,5.59
2022-11-06T07:34:39.217Z,5.71
2022-11-06T07:39:42.565Z,5.82
2022-11-06T07:44:46.140Z,5.99
2022-11-06T07:49:51.150Z,6.12
2022-11-06T07:54:54.809Z,6.26
2022-11-06T07:59:58.325Z,6.43
2022-11-06T08:05:02.577Z,6.50
2022-11-06T08:10:06.585Z,6.55
2022-11-06T08:15:10.714Z,6.62
2022-11-06T08:20:14.130Z,6.75
2022-11-06T08:25:17.849Z,6.85
2022-11-06T08:30:21.362Z,7.03
2022-11-06T08:35:24.674Z,7.18
2022-11-06T08:40:31.126Z,7.33
2022-11-06T08:45:43.394Z,7.42
2022-11-06T08:50:46.791Z,7.54
2022-11-06T08:55:50.211Z,7.77
2022-11-06T09:00:53.810Z,7.96
2022-11-06T09:05:57.545Z,8.12
2022-11-06T09:11:00.956Z,8.09
2022-11-06T09:16:04.984Z,8.05
2022-11-06T09:21:09.044Z,8.07
2022-11-06T09:26:12.323Z,8.11
2022-11-06T09:31:15.735Z,8.38
2022-11-06T09:36:19.049Z,8.47
2022-11-06T09:41:37.818Z,8.54
2022-11-06T09:46:46.073Z,8.73
2022-11-06T09:51:57.551Z,8.89
2022-11-06T09:57:30.042Z,8.87
2022-11-06T10:02:48.766Z,8.90
2022-11-06T10:07:56.583Z,8.98
2022-11-06T10:13:37.834Z,9.03
2022-11-06T10:19:24.867Z,9.07
2022-11-06T10:24:45.075Z,9.01
2022-11-06T10:29:57.502Z,9.15
2022-11-06T10:35:06.851Z,9.20
2022-11-06T10:40:18.970Z,9.36
2022-11-06T10:45:24.222Z,9.57
2022-11-06T10:50:37.572Z,9.69
2022-11-06T10:56:11.159Z,9.75
2022-11-06T11:01:15.608Z,9.69
2022-11-06T11:06:18.941Z,9.64
2022-11-06T11:11:27.271Z,9.61
2022-11-06T11:16:35.989Z,9.59
2022-11-06T11:21:39.320Z,9.65
2022-11-06T11:26:48.801Z,9.73
2022-11-06T11:31:56.284Z,9.74
2022-11-06T11:37:03.118Z,9.85
2022-11-06T11:42:26.558Z,9.95
2022-11-06T11:47:29.888Z,10.07
2022-11-06T11:52:33.180Z,10.09
2022-11-06T11:57:36.591Z,10.14
2022-11-06T12:02:46.284Z,10.24
2022-11-06T12:07:56.539Z,10.37
2022-11-06T12:13:04.139Z,10.48
2022-11-06T12:18:13.183Z,10.51
2022-11-06T12:23:32.466Z,10.57
2022-11-06T12:28:40.247Z,10.63
2022-11-06T12:34:06.613Z,10.71
2022-11-06T12:39:20.083Z,10.78
2022-11-06T12:44:23.499Z,10.78
2022-11-06T12:49:36.432Z,10.79
2022-11-06T12:55:11.701Z,10.88
2022-11-06T13:00:31.270Z,10.88
2022-11-06T13:05:47.805Z,10.84
2022-11-06T13:11:13.439Z,10.77
2022-11-06T13:16:20.846Z,10.85
2022-11-06T13:21:58.872Z,10.81
2022-11-06T13:27:39.764Z,10.84
2022-11-06T13:32:53.518Z,10.80
2022-11-06T13:37:58.058Z,10.70
2022-11-06T13:43:10.173Z,10.67
2022-11-06T13:48:44.819Z,10.60
2022-11-06T13:54:29.501Z,10.51
2022-11-06T13:59:41.618Z,10.46
2022-11-06T14:05:22.716Z,10.39
2022-11-06T14:10:34.522Z,10.31
2022-11-06T14:15:42.149Z,10.23
2022-11-06T14:20:45.446Z,10.16
2022-11-06T14:26:00.634Z,10.11
2022-11-06T14:31:13.995Z,10.03
2022-11-06T14:36:24.665Z,9.88
2022-11-06T14:41:34.155Z,9.74
2022-11-06T14:46:37.738Z,9.62
2022-11-06T14:51:41.870Z,9.46
2022-11-06T14:56:52.347Z,9.29
2022-11-06T15:02:06.100Z,9.04
2022-11-06T15:07:58.304Z,8.76
2022-11-06T15:13:17.149Z,8.60
2022-11-06T15:18:23.769Z,8.41
2022-11-06T15:23:31.641Z,8.23
2022-11-06T15:29:18.371Z,8.08
2022-11-06T15:34:25.162Z,7.93
2022-11-06T15:39:48.338Z,7.79
2022-11-06T15:44:52.468Z,7.65
2022-11-06T15:50:22.553Z,7.55
2022-11-06T15:55:27.973Z,7.42
2022-11-06T16:00:37.020Z,7.29
2022-11-06T16:05:41.039Z,7.17
2022-11-06T16:10:48.367Z,7.08
2022-11-06T16:15:54.527Z,6.99
2022-11-06T16:21:21.180Z,6.89
2022-11-06T16:26:24.390Z,6.83
2022-11-06T16:31:30.462Z,6.77
2022-11-06T16:36:59.887Z,6.70
2022-11-06T16:42:03.915Z,6.63
2022-11-06T16:47:10.259Z,6.57
2022-11-06T16:52:39.381Z,6.49
2022-11-06T16:57:53.168Z,6.43
2022-11-06T17:03:00.874Z,6.38
2022-11-06T17:08:20.602Z,6.33
2022-11-06T17:13:26.280Z,6.30
2022-11-06T17:18:34.572Z,6.27
2022-11-06T17:23:37.988Z,6.23
2022-11-06T17:28:41.404Z,6.20
2022-11-06T17:33:45.530Z,6.18
2022-11-06T17:38:49.759Z,6.19
2022-11-06T17:43:53.071Z,6.17
2022-11-06T17:48:56.836Z,6.11
2022-11-06T17:54:00.612Z,6.02
2022-11-06T17:59:04.237Z,5.94
2022-11-06T18:04:07.853Z,5.91
2022-11-06T18:09:11.471Z,5.90
2022-11-06T18:14:15.293Z,5.91
2022-11-06T18:19:21.877Z,5.87
2022-11-06T18:24:25.291Z,5.86
2022-11-06T18:29:28.605Z,5.88
2022-11-06T18:34:32.118Z,5.88
2022-11-06T18:39:35.429Z,5.89
2022-11-06T18:44:41.609Z,5.90
2022-11-06T18:49:44.920Z,5.93
2022-11-06T18:54:49.148Z,5.94
2022-11-06T18:59:55.941Z,5.93
2022-11-06T19:05:00.167Z,5.91
2022-11-06T19:10:04.278Z,5.88
2022-11-06T19:15:08.437Z,5.83
2022-11-06T19:20:14.912Z,5.75
2022-11-06T19:25:20.073Z,5.66
2022-11-06T19:30:23.447Z,5.53
2022-11-06T19:35:27.311Z,5.39
2022-11-06T19:40:30.865Z,5.26
2022-11-06T19:45:35.263Z,5.16
2022-11-06T19:50:58.803Z,5.09
2022-11-06T19:56:10.658Z,5.02
2022-11-06T20:01:17.184Z,4.99
2022-11-06T20:06:22.296Z,4.92
2022-11-06T20:11:30.711Z,4.88
2022-11-06T20:16:35.061Z,4.81
2022-11-06T20:21:38.376Z,4.73
2022-11-06T20:26:42.092Z,4.65
2022-11-06T20:31:45.824Z,4.58
2022-11-06T20:36:49.227Z,4.52
2022-11-06T20:41:55.819Z,4.47
2022-11-06T20:46:59.533Z,4.41
2022-11-06T20:52:17.788Z,4.38
2022-11-06T20:57:21.312Z,4.34
2022-11-06T21:02:25.082Z,4.31
2022-11-06T21:07:30.012Z,4.28
2022-11-06T21:12:35.553Z,4.25
2022-11-06T21:17:42.950Z,4.21
2022-11-06T21:22:47.287Z,4.23
2022-11-06T21:27:50.453Z,4.20
2022-11-06T21:32:53.805Z,4.19
2022-11-06T21:37:57.832Z,4.15
2022-11-06T21:43:01.450Z,4.12
2022-11-06T21:48:10.963Z,4.09
2022-11-06T21:53:42.789Z,4.06
2022-11-06T21:58:51.158Z,4.02
2022-11-06T22:03:55.311Z,3.99
2022-11-06T22:09:01.467Z,3.97
2022-11-06T22:14:08.355Z,3.97
2022-11-06T22:19:13.746Z,3.96
2022-11-06T22:24:17.397Z,3.93
2022-11-06T22:29:24.088Z,3.89
2022-11-06T22:34:27.602Z,3.87
2022-11-06T22:39:31.016Z,3.86
2022-11-06T22:44:35.760Z,3.83
2022-11-06T22:49:39.890Z,3.79
2022-11-06T22:54:43.201Z,3.76
2022-11-06T22:59:46.617Z,3.71
2022-11-06T23:04:50.029Z,3.69
2022-11-06T23:09:53.340Z,3.69
2022-11-06T23:14:58.903Z,3.67
2022-11-06T23:20:03.134Z,3.73
2022-11-06T23:25:11.565Z,3.76
2022-11-06T23:30:15.592Z,3.81
2022-11-06T23:35:22.585Z,3.85
2022-11-06T23:40:26.822Z,3.91
2022-11-06T23:45:48.770Z,4.00
2022-11-06T23:50:52.284Z,4.01
2022-11-06T23:55:55.802Z,3.99
